SKVV/VVC METAR and TAF weather

Enter ICAO airport designator
Station Type Date Time Source
SKVV METAR 2019/08/22 19:00 UTC NOAA

SKVV 221900Z 21006KT 9999 FEW020 SCT090 29/20 A2997


Station Type Date Time Source
SKVV Decoded METAR 2019/08/22 19:00 UTC NOAA

Station name not available
Aug 22, 2019 - 03:00 PM EDT / 2019.08.22 1900 UTC
Wind: from the SSW (210 degrees) at 7 MPH (6 KT):0
Visibility: greater than 7 mile(s):0
Sky conditions: partly cloudy
Temperature: 84 F (29 C)
Dew Point: 68 F (20 C)
Relative Humidity: 58%
Pressure (altimeter): 29.97 in. Hg (1014 hPa)
ob: SKVV 221900Z 21006KT 9999 FEW020 SCT090 29/20 A2997
cycle: 19

Station Type Date Time Source
SKVV TAF UTC NOAA

Error!

Example: see airport list